Time;durP1;ratioP1;P1;durP2;ratioP2;P2;SDS_P1;SDS_P2;PMS_P1;PMS_P2;Temp;Humidity;BMP_temperature;BMP_pressure;BME280_temperature;BME280_humidity;BME280_pressure;Samples;Min_cycle;Max_cycle;Signal;HPM_P1;HPM_P2
2023/03/24 00:05:22;;;;;;;0.47;0.47;;;19.40;59.50;;;19.21;43.42;94439.31;4934813;29;20278;-30
2023/03/24 00:47:51;;;;;;;0.50;0.50;;;19.20;59.90;;;19.04;43.81;94412.91;5006410;28;20678;-27
2023/03/24 00:54:42;;;;;;;0.40;0.40;;;19.20;60.00;;;19.06;43.93;94402.81;4976918;28;20668;-27
2023/03/24 01:01:33;;;;;;;0.50;0.50;;;19.20;60.10;;;19.09;44.10;94397.00;4973584;28;20640;-27
2023/03/24 01:05:27;;;;;;;0.50;0.50;;;19.20;60.10;;;19.10;43.98;94387.97;4997595;28;20208;-27
2023/03/24 01:08:52;;;;;;;0.40;0.40;;;19.20;60.10;;;19.11;44.21;94383.47;4964455;28;20194;-27
2023/03/24 01:26:08;;;;;;;0.52;0.52;;;19.20;60.00;;;18.99;43.68;94376.50;5064162;22;20246;-27
2023/03/24 01:29:11;;;;;;;0.50;0.50;;;19.10;60.10;;;19.02;44.26;94375.97;5044849;28;20196;-27
2023/03/24 01:32:21;;;;;;;0.50;0.50;;;19.10;60.10;;;19.03;44.29;94369.59;4984735;28;20560;-27
2023/03/24 01:35:38;;;;;;;0.40;0.40;;;19.10;60.20;;;19.04;44.20;94368.53;4996285;28;20285;-27
2023/03/24 01:38:50;;;;;;;0.40;0.40;;;19.10;60.10;;;19.06;43.94;94368.28;4969781;28;20695;-27
2023/03/24 01:42:56;;;;;;;;;;;;;;;;;;;;;
2023/03/24 01:47:16;;;;;;;0.50;0.50;;;19.20;60.20;;;19.03;44.39;94356.31;4891515;29;20507;-26
2023/03/24 01:58:26;;;;;;;0.43;0.43;;;19.10;60.10;;;19.03;44.34;94344.88;4927497;29;20215;-26
2023/03/24 02:01:34;;;;;;;0.52;0.52;;;19.10;60.20;;;19.04;43.95;94346.47;4926412;29;20204;-26
2023/03/24 02:05:08;;;;;;;0.50;0.50;;;19.10;60.20;;;19.04;44.31;94341.16;4976162;28;20208;-26
2023/03/24 02:08:14;;;;;;;0.50;0.50;;;19.10;60.20;;;19.03;43.92;94334.25;4947355;28;20206;-26
2023/03/24 02:11:43;;;;;;;0.47;0.47;;;19.10;60.20;;;19.04;44.04;94338.50;4976576;28;20187;-26
2023/03/24 02:14:53;;;;;;;0.45;0.45;;;19.10;60.30;;;19.03;44.06;94335.03;4923535;29;20424;-26
2023/03/24 02:36:38;;;;;;;0.50;0.50;;;19.00;60.20;;;18.87;44.02;94310.22;5021092;23;20790;-31
2023/03/24 02:40:23;;;;;;;0.50;0.50;;;19.00;60.30;;;18.88;44.53;94313.69;5015588;28;20215;-31
2023/03/24 02:44:04;;;;;;;0.50;0.50;;;19.00;60.30;;;18.87;44.69;94301.44;5032193;28;20207;-31
2023/03/24 02:47:51;;;;;;;0.40;0.40;;;19.00;61.30;;;18.88;44.32;94298.56;5016266;28;20220;-31
2023/03/24 02:51:31;;;;;;;0.52;0.52;;;19.00;60.40;;;18.88;44.44;94295.06;5003511;28;20201;-31
2023/03/24 02:54:53;;;;;;;0.50;0.50;;;19.00;60.50;;;18.88;44.81;94290.56;4988157;28;20279;-31
2023/03/24 02:58:36;;;;;;;0.40;0.40;;;19.00;60.50;;;18.87;44.21;94286.31;5014797;28;20216;-31
2023/03/24 03:01:59;;;;;;;0.50;0.50;;;18.90;60.30;;;18.89;44.75;94280.75;5015913;28;20615;-31
2023/03/24 03:05:31;;;;;;;0.50;0.50;;;19.00;60.50;;;18.88;44.70;94282.59;5005726;28;20256;-31
2023/03/24 03:09:00;;;;;;;0.50;0.50;;;19.00;60.50;;;18.90;44.67;94279.69;5014994;28;20212;-31
2023/03/24 03:12:18;;;;;;;0.40;0.40;;;19.00;60.50;;;18.89;44.31;94278.06;5014691;28;20200;-31
2023/03/24 03:15:44;;;;;;;0.50;0.50;;;19.00;60.50;;;18.89;44.67;94267.44;4989427;23;20590;-27
2023/03/24 03:18:56;;;;;;;0.50;0.50;;;19.00;60.50;;;18.88;44.73;94261.34;5020683;28;20290;-27
2023/03/24 03:22:03;;;;;;;0.50;0.50;;;18.90;60.50;;;18.89;44.57;94262.13;5035737;28;20199;-28
2023/03/24 03:25:08;;;;;;;0.50;0.50;;;19.00;60.50;;;18.90;44.48;94258.44;5034321;28;20544;-27
2023/03/24 03:28:35;;;;;;;0.50;0.50;;;19.00;60.50;;;18.91;44.32;94251.25;5022082;28;20226;-27
2023/03/24 03:41:31;;;;;;;0.40;0.40;;;19.00;60.50;;;18.80;44.69;94256.53;5037904;23;20932;-26
2023/03/24 03:45:00;;;;;;;0.57;0.57;;;18.90;60.40;;;18.81;44.44;94249.34;5014563;28;20218;-26
2023/03/24 03:48:22;;;;;;;0.50;0.50;;;18.90;60.50;;;18.83;44.65;94247.22;4989835;28;20264;-26
2023/03/24 03:51:35;;;;;;;0.50;0.50;;;18.90;60.50;;;18.82;44.82;94235.00;4954188;28;20669;-26
2023/03/24 03:54:38;;;;;;;0.40;0.40;;;18.90;60.60;;;18.84;44.30;94248.84;4963220;28;20203;-26
2023/03/24 03:57:46;;;;;;;0.40;0.40;;;18.90;60.60;;;18.83;44.79;94236.59;4947635;28;20240;-26
2023/03/24 04:01:08;;;;;;;0.47;0.47;;;18.90;60.60;;;18.83;44.42;94245.38;4949705;28;20213;-26
2023/03/24 04:05:07;;;;;;;0.50;0.50;;;18.90;60.50;;;18.84;44.67;94235.56;4939235;28;20222;-26
2023/03/24 04:09:00;;;;;;;0.50;0.50;;;18.90;60.60;;;18.81;44.18;94231.56;4963611;28;20555;-27
2023/03/24 04:12:09;;;;;;;0.47;0.47;;;18.90;60.60;;;18.80;44.69;94232.63;4958308;28;20201;-26
2023/03/24 04:16:03;;;;;;;0.40;0.40;;;18.90;60.60;;;18.80;44.74;94216.69;4974412;28;20206;-26
2023/03/24 04:19:31;;;;;;;0.50;0.50;;;18.90;60.60;;;18.80;44.91;94214.03;4957699;28;20202;-26
2023/03/24 04:22:54;;;;;;;0.50;0.50;;;18.90;60.60;;;18.80;44.57;94207.91;4974216;28;20656;-26
2023/03/24 04:26:00;;;;;;;0.55;0.55;;;18.90;60.50;;;18.79;44.84;94195.69;4974408;28;20198;-26
2023/03/24 04:29:24;;;;;;;0.40;0.40;;;18.90;60.60;;;18.80;44.63;94203.38;4974310;28;20212;-26
2023/03/24 04:32:45;;;;;;;0.43;0.43;;;18.90;60.60;;;18.79;44.60;94207.09;4960495;28;20308;-26
2023/03/24 04:35:48;;;;;;;0.50;0.50;;;18.90;60.70;;;18.79;44.33;94201.78;4974050;28;20217;-26
2023/03/24 04:39:03;;;;;;;0.40;0.40;;;18.90;60.60;;;18.80;44.53;94207.91;4947515;28;20210;-26
2023/03/24 04:42:10;;;;;;;0.50;0.50;;;18.90;60.60;;;18.80;44.70;94208.72;5004926;28;20693;-27
2023/03/24 04:45:01;;;;;;;0.50;0.50;;;18.90;60.70;;;18.80;44.39;94206.06;5038124;28;20191;-26
2023/03/24 04:47:59;;;;;;;0.40;0.40;;;18.90;60.70;;;18.80;44.92;94202.59;5023790;28;20280;-26
2023/03/24 04:50:52;;;;;;;0.50;0.50;;;18.90;60.60;;;18.81;44.47;94209.50;5006793;28;20195;-26
2023/03/24 04:53:20;;;;;;;0.47;0.47;;;18.90;60.60;;;18.82;44.49;94209.25;5020912;28;20200;-26
2023/03/24 04:56:17;;;;;;;0.50;0.50;;;18.90;61.70;;;18.83;44.68;94210.03;5021033;28;20582;-26
2023/03/24 04:59:00;;;;;;;0.40;0.40;;;18.90;60.70;;;18.83;44.72;94215.34;5006843;28;20654;-26
2023/03/24 05:01:30;;;;;;;0.50;0.50;;;18.90;60.60;;;18.82;44.78;94203.94;5020710;28;20235;-26
2023/03/24 05:04:18;;;;;;;0.50;0.50;;;18.90;60.70;;;18.83;44.96;94204.72;5038594;28;20246;-26
2023/03/24 05:06:48;;;;;;;0.40;0.40;;;18.90;60.70;;;18.83;44.52;94200.19;4988697;28;20195;-26
2023/03/24 05:09:24;;;;;;;0.50;0.50;;;18.90;60.70;;;18.83;44.47;94194.09;4990934;28;20200;-26
2023/03/24 05:11:52;;;;;;;0.50;0.50;;;18.90;60.70;;;18.85;44.39;94198.09;5020633;28;20185;-26
2023/03/24 05:14:21;;;;;;;0.50;0.50;;;18.90;60.80;;;18.85;44.85;94197.31;5020873;28;20584;-26
2023/03/24 05:16:49;;;;;;;0.40;0.40;;;18.90;60.70;;;18.85;44.32;94198.09;5020753;28;20215;-26
2023/03/24 05:19:20;;;;;;;0.45;0.45;;;18.90;60.70;;;18.85;44.37;94199.97;4989397;28;20189;-26
2023/03/24 05:21:49;;;;;;;0.50;0.50;;;18.90;60.70;;;18.86;44.98;94194.38;5020446;28;20223;-26
2023/03/24 05:24:16;;;;;;;0.40;0.40;;;18.90;61.50;;;18.87;44.84;94192.50;5020436;28;20630;-26
2023/03/24 05:26:44;;;;;;;0.50;0.50;;;18.90;60.70;;;18.87;44.74;94201.28;5004396;28;20267;-26
2023/03/24 05:29:18;;;;;;;0.40;0.40;;;18.90;60.60;;;18.88;44.30;94210.03;4989961;28;20626;-26
2023/03/24 05:31:45;;;;;;;0.40;0.40;;;18.90;60.70;;;18.88;44.71;94202.88;5004403;28;20205;-26
2023/03/24 05:34:17;;;;;;;0.40;0.40;;;18.90;60.70;;;18.87;44.89;94206.59;5021073;28;20518;-26
2023/03/24 05:37:05;;;;;;;0.50;0.50;;;19.00;60.80;;;18.87;44.39;94200.47;5037705;28;20284;-26
2023/03/24 05:39:38;;;;;;;0.43;0.43;;;18.90;60.60;;;18.88;44.32;94210.88;5019975;28;20205;-26
2023/03/24 05:42:42;;;;;;;0.40;0.40;;;18.90;60.60;;;18.86;44.20;94212.97;5007069;28;20609;-26
2023/03/24 05:45:17;;;;;;;0.50;0.50;;;19.00;60.70;;;18.87;44.30;94203.94;5021405;28;20291;-26
2023/03/24 05:47:54;;;;;;;0.40;0.40;;;18.90;60.60;;;18.87;44.27;94201.28;5019669;28;20279;-26
2023/03/24 05:50:49;;;;;;;0.50;0.50;;;18.90;60.70;;;18.87;44.56;94206.59;5037494;28;20217;-26
2023/03/24 05:53:21;;;;;;;0.50;0.50;;;18.90;60.70;;;18.89;44.75;94214.31;4988641;28;20671;-26
2023/03/24 05:56:12;;;;;;;0.45;0.45;;;18.90;60.70;;;18.87;44.48;94206.59;5007106;28;20638;-26
2023/03/24 05:59:10;;;;;;;0.43;0.43;;;18.90;60.60;;;18.87;44.21;94205.78;5007607;28;20265;-26
2023/03/24 06:02:07;;;;;;;0.45;0.45;;;18.90;60.60;;;18.86;44.95;94202.34;5024208;28;20204;-26
2023/03/24 06:04:47;;;;;;;0.50;0.50;;;18.90;60.70;;;18.86;44.59;94196.25;5020322;28;20214;-26
2023/03/24 06:07:25;;;;;;;0.40;0.40;;;18.90;60.70;;;18.86;44.78;94202.34;5003884;28;20278;-26
2023/03/24 06:09:56;;;;;;;0.50;0.50;;;18.90;60.70;;;18.88;44.52;94199.41;5004341;28;20215;-26
2023/03/24 06:12:25;;;;;;;0.40;0.40;;;18.90;60.70;;;18.88;44.30;94189.59;5003705;28;20615;-27
2023/03/24 06:15:03;;;;;;;0.30;0.30;;;19.00;60.80;;;18.90;44.86;94194.66;5006333;28;20194;-26
2023/03/24 06:17:31;;;;;;;0.50;0.50;;;18.90;60.70;;;18.90;44.79;94193.88;5004086;28;20226;-26
2023/03/24 06:20:12;;;;;;;0.50;0.50;;;18.90;60.70;;;18.90;44.62;94189.34;5019445;28;20664;-26
2023/03/24 06:22:46;;;;;;;0.50;0.50;;;18.90;60.70;;;18.91;44.64;94182.16;5019489;28;20250;-26
2023/03/24 06:25:20;;;;;;;0.52;0.52;;;18.90;60.80;;;18.90;44.34;94189.34;4988453;28;20192;-26
2023/03/24 06:28:02;;;;;;;0.47;0.47;;;19.00;60.80;;;18.92;44.90;94195.22;5005339;28;20196;-26
2023/03/24 06:30:35;;;;;;;0.50;0.50;;;18.90;60.80;;;18.92;44.70;94199.72;5003542;28;20207;-26
2023/03/24 06:33:05;;;;;;;0.50;0.50;;;18.90;60.70;;;18.94;44.81;94194.97;5019224;28;20192;-26
2023/03/24 06:35:35;;;;;;;0.50;0.50;;;18.90;60.70;;;18.94;44.45;94187.00;5003437;28;20204;-26
2023/03/24 06:38:07;;;;;;;0.40;0.40;;;19.00;60.90;;;18.94;44.71;94190.44;5003253;28;20216;-26
2023/03/24 06:40:36;;;;;;;0.40;0.40;;;19.00;60.90;;;18.95;44.61;94183.28;5019101;28;20534;-26
2023/03/24 06:43:05;;;;;;;0.40;0.40;;;19.00;60.90;;;18.95;44.85;94184.06;5019324;28;20676;-26
2023/03/24 06:45:38;;;;;;;0.40;0.40;;;19.00;60.90;;;18.96;44.47;94182.22;5003530;28;20211;-26
2023/03/24 06:48:11;;;;;;;0.40;0.40;;;19.00;60.80;;;18.96;44.90;94187.53;5018895;28;20201;-26
2023/03/24 06:50:39;;;;;;;0.50;0.50;;;19.00;60.80;;;18.96;44.86;94188.31;5002835;28;20607;-26
2023/03/24 06:53:09;;;;;;;0.50;0.50;;;19.00;60.90;;;18.98;44.57;94188.03;5003578;28;20193;-26
2023/03/24 06:55:38;;;;;;;0.40;0.40;;;19.00;60.90;;;18.97;44.49;94187.25;5018793;28;20208;-26
2023/03/24 06:58:10;;;;;;;0.47;0.47;;;19.00;60.90;;;18.98;44.28;94190.69;5002503;28;20563;-26
2023/03/24 07:01:02;;;;;;;0.40;0.40;;;19.00;60.80;;;18.96;44.90;94198.16;5004407;28;20203;-26
2023/03/24 07:03:48;;;;;;;0.50;0.50;;;19.00;60.80;;;18.97;44.53;94195.22;5036101;28;20633;-26
2023/03/24 07:06:17;;;;;;;0.50;0.50;;;19.00;60.80;;;18.98;44.46;94201.34;5035991;28;20185;-26
2023/03/24 07:08:53;;;;;;;0.45;0.45;;;19.00;60.70;;;19.00;44.36;94207.97;4988490;28;20214;-26
2023/03/24 07:11:23;;;;;;;0.50;0.50;;;19.00;60.80;;;19.00;44.64;94204.53;5018723;28;20654;-26
2023/03/24 07:13:54;;;;;;;0.40;0.40;;;19.10;60.90;;;19.01;44.28;94214.13;5018529;28;20200;-26
2023/03/24 07:16:24;;;;;;;0.50;0.50;;;19.00;60.70;;;19.00;44.43;94207.19;5018607;28;20201;-26
2023/03/24 07:19:34;;;;;;;0.50;0.50;;;19.00;60.80;;;19.01;44.83;94208.78;4956142;29;20231;-26
2023/03/24 07:22:22;;;;;;;0.50;0.50;;;19.00;60.80;;;19.01;44.39;94206.94;4956367;29;20320;-26
2023/03/24 07:25:13;;;;;;;0.50;0.50;;;19.10;60.90;;;19.04;45.04;94206.41;5001681;28;20258;-26
2023/03/24 07:27:55;;;;;;;0.40;0.40;;;19.10;60.90;;;19.05;44.40;94191.25;5018110;28;20192;-26
2023/03/24 07:30:25;;;;;;;0.50;0.50;;;19.10;60.90;;;19.07;44.86;94193.66;4986665;28;20196;-26
2023/03/24 07:33:09;;;;;;;0.43;0.43;;;19.10;60.90;;;19.08;44.66;94182.78;4989545;28;20219;-26
2023/03/24 07:35:39;;;;;;;0.45;0.45;;;19.10;60.90;;;19.10;44.72;94179.84;5002293;28;20291;-26
2023/03/24 07:38:07;;;;;;;0.40;0.40;;;19.10;60.90;;;19.13;44.88;94189.97;5018054;28;20218;-26
2023/03/24 07:40:38;;;;;;;0.40;0.40;;;19.10;60.90;;;19.13;44.70;94184.66;5002204;28;20266;-32
2023/03/24 07:43:13;;;;;;;0.47;0.47;;;19.10;60.90;;;19.14;44.49;94179.06;5019334;28;20701;-26
2023/03/24 07:46:05;;;;;;;0.50;0.50;;;19.20;61.00;;;19.16;44.49;94182.25;5018128;28;20207;-26
2023/03/24 07:48:41;;;;;;;0.43;0.43;;;19.10;60.80;;;19.17;44.45;94180.38;5002150;28;20691;-26
2023/03/24 07:51:10;;;;;;;0.40;0.40;;;19.20;61.00;;;19.18;44.98;94180.13;5001967;28;20651;-26
2023/03/24 07:53:53;;;;;;;0.40;0.40;;;19.20;60.90;;;19.20;44.65;94183.31;5003666;28;20204;-26
2023/03/24 07:56:33;;;;;;;0.43;0.43;;;19.20;60.90;;;19.21;44.39;94178.78;5017854;28;20234;-26
2023/03/24 07:59:02;;;;;;;0.40;0.40;;;19.20;60.90;;;19.24;44.64;94175.63;5033855;28;20221;-26
2023/03/24 08:02:04;;;;;;;0.45;0.45;;;19.20;60.90;;;19.23;44.60;94174.00;4991499;28;20527;-26
2023/03/24 08:04:55;;;;;;;0.40;0.40;;;19.30;61.00;;;19.24;44.37;94167.63;4990235;28;20255;-26
2023/03/24 08:07:54;;;;;;;0.40;0.40;;;19.30;60.90;;;19.26;44.62;94172.69;5021804;28;20711;-26
2023/03/24 08:10:31;;;;;;;0.40;0.40;;;19.30;61.90;;;19.25;44.73;94166.56;5019364;28;20199;-26
2023/03/24 08:13:05;;;;;;;0.57;0.57;;;19.30;60.90;;;19.27;44.54;94163.66;5017946;28;20244;-28
2023/03/24 08:15:34;;;;;;;0.40;0.40;;;19.30;60.90;;;19.29;44.81;94169.50;5017990;28;20180;-28
2023/03/24 08:18:03;;;;;;;0.40;0.40;;;19.30;60.90;;;19.30;45.05;94166.56;5001371;28;20230;-28
2023/03/24 08:20:35;;;;;;;0.50;0.50;;;19.30;61.00;;;19.31;44.49;94168.19;5017880;28;20184;-28
2023/03/24 08:23:16;;;;;;;0.43;0.43;;;19.30;60.90;;;19.33;44.86;94166.06;5033956;28;20275;-27
2023/03/24 08:25:46;;;;;;;0.40;0.40;;;19.30;60.90;;;19.36;44.79;94167.38;5018272;28;20231;-27
2023/03/24 08:29:16;;;;;;;0.40;0.40;;;19.40;61.00;;;19.35;44.83;94169.22;4957228;28;20224;-28
2023/03/24 08:31:45;;;;;;;0.40;0.40;;;19.40;60.90;;;19.35;44.75;94163.13;4973232;28;20685;-28
2023/03/24 08:34:13;;;;;;;0.40;0.40;;;19.40;61.00;;;19.38;44.70;94162.59;4976012;28;20203;-27
2023/03/24 08:36:45;;;;;;;0.40;0.40;;;19.40;61.00;;;19.40;44.69;94159.69;4995353;28;20188;-27
2023/03/24 08:39:21;;;;;;;0.40;0.40;;;19.40;61.00;;;19.39;44.65;94161.53;4995075;28;20220;-27
2023/03/24 08:41:49;;;;;;;0.40;0.40;;;19.40;60.90;;;19.41;44.46;94171.88;4977947;28;20226;-27
2023/03/24 08:44:18;;;;;;;0.40;0.40;;;19.40;60.90;;;19.42;44.84;94161.00;4962336;28;20347;-27
2023/03/24 08:46:52;;;;;;;0.40;0.40;;;19.50;61.00;;;19.44;44.71;94156.19;4979357;28;20258;-27
2023/03/24 08:49:20;;;;;;;0.43;0.43;;;19.40;60.90;;;19.46;44.12;94163.94;4995440;28;20586;-28
2023/03/24 08:51:50;;;;;;;0.40;0.40;;;19.50;60.90;;;19.45;44.73;94160.47;4995299;28;20631;-28
2023/03/24 08:54:22;;;;;;;0.60;0.60;;;19.50;60.90;;;19.46;44.33;94154.06;4978528;28;20202;-27
2023/03/24 08:56:50;;;;;;;0.40;0.40;;;19.50;60.90;;;19.46;44.19;94156.75;4991039;28;20218;-28
2023/03/24 08:59:25;;;;;;;0.50;0.50;;;19.50;60.80;;;19.48;44.59;94157.28;4995244;28;20304;-27
2023/03/24 09:02:20;;;;;;;0.50;0.50;;;19.50;60.80;;;19.46;44.59;94162.06;5034709;23;20236;-30
2023/03/24 09:04:52;;;;;;;0.40;0.40;;;19.50;60.80;;;19.47;44.63;94161.00;5034707;28;20628;-30
2023/03/24 09:07:20;;;;;;;0.40;0.40;;;19.50;60.80;;;19.47;44.14;94158.34;5034487;28;20527;-30
2023/03/24 09:09:47;;;;;;;0.50;0.50;;;19.50;60.80;;;19.48;44.11;94169.75;5017227;28;20188;-30
2023/03/24 09:12:15;;;;;;;0.40;0.40;;;19.50;60.70;;;19.49;44.68;94163.38;5034425;28;20195;-30
2023/03/24 09:14:48;;;;;;;0.40;0.40;;;19.50;60.70;;;19.50;44.45;94167.66;5017184;28;20199;-30
2023/03/24 09:17:16;;;;;;;0.50;0.50;;;19.50;60.80;;;19.50;44.41;94171.09;5017308;28;20192;-30
2023/03/24 09:19:46;;;;;;;0.47;0.47;;;19.50;60.80;;;19.50;44.13;94157.00;5034372;28;20246;-30
2023/03/24 09:22:13;;;;;;;0.40;0.40;;;19.50;60.80;;;19.51;44.24;94166.59;5034452;28;20186;-30
2023/03/24 09:24:40;;;;;;;0.50;0.50;;;19.50;60.80;;;19.52;44.26;94161.00;5037099;28;20190;-30
2023/03/24 09:27:08;;;;;;;0.40;0.40;;;19.60;60.90;;;19.54;44.66;94167.91;5038115;28;20202;-30
2023/03/24 09:29:38;;;;;;;0.40;0.40;;;19.60;60.80;;;19.53;44.24;94161.81;5020897;28;20680;-30
2023/03/24 09:32:05;;;;;;;0.70;0.70;;;19.60;60.80;;;19.55;44.65;94164.19;5004888;28;20187;-30
2023/03/24 09:34:37;;;;;;;0.40;0.40;;;19.60;60.80;;;19.56;44.18;94163.91;5037977;28;20644;-30
2023/03/24 09:37:06;;;;;;;0.40;0.40;;;19.60;60.80;;;19.57;44.20;94159.41;5037632;28;20214;-30
2023/03/24 09:39:35;;;;;;;0.35;0.35;;;19.60;61.70;;;19.57;44.48;94154.09;5036523;28;20219;-30
2023/03/24 09:42:14;;;;;;;0.40;0.40;;;19.60;60.70;;;19.57;44.29;94149.56;5020595;28;20196;-30
2023/03/24 09:44:54;;;;;;;0.40;0.40;;;19.60;60.70;;;19.57;44.24;94146.13;5020127;28;20283;-30
2023/03/24 09:47:40;;;;;;;0.40;0.40;;;19.60;60.70;;;19.58;44.11;94139.69;5004143;28;20197;-30
2023/03/24 09:50:27;;;;;;;0.40;0.40;;;19.60;60.70;;;19.58;44.57;94137.03;5037467;28;20214;-30
2023/03/24 09:53:07;;;;;;;0.43;0.43;;;19.60;60.70;;;19.58;44.14;94131.72;5020867;28;20206;-30
2023/03/24 09:55:38;;;;;;;0.40;0.40;;;19.60;60.70;;;19.58;43.85;94131.72;5037627;28;20210;-30
2023/03/24 09:58:07;;;;;;;0.47;0.47;;;19.60;60.70;;;19.58;44.65;94119.25;5020720;28;20293;-30
2023/03/24 10:00:41;;;;;;;0.40;0.40;;;19.60;60.70;;;19.59;44.19;94128.00;5019424;28;20666;-31
2023/03/24 10:03:22;;;;;;;0.40;0.40;;;19.60;60.70;;;19.59;44.05;94125.34;5020548;28;20199;-31
2023/03/24 10:06:04;;;;;;;0.40;0.40;;;19.60;60.70;;;19.59;43.94;94128.81;5003733;28;20214;-30
2023/03/24 10:08:45;;;;;;;0.40;0.40;;;19.60;60.70;;;19.61;44.21;94128.53;5020097;28;20614;-30
2023/03/24 10:11:39;;;;;;;0.40;0.40;;;19.70;60.70;;;19.61;44.14;94131.19;5036939;28;20237;-30
2023/03/24 10:14:21;;;;;;;0.40;0.40;;;19.70;60.70;;;19.59;44.09;94125.34;5037017;28;20203;-30
2023/03/24 10:17:15;;;;;;;0.40;0.40;;;19.70;60.70;;;19.58;44.60;94124.56;5037496;28;20187;-30
2023/03/24 10:19:59;;;;;;;0.40;0.40;;;19.70;60.70;;;19.60;44.07;94124.28;5036630;28;20202;-30
2023/03/24 10:22:53;;;;;;;0.50;0.50;;;19.70;60.70;;;19.59;44.57;94123.50;5004190;28;20268;-30
2023/03/24 10:25:42;;;;;;;0.40;0.40;;;19.70;60.70;;;19.60;44.55;94118.97;5036714;28;20171;-29
2023/03/24 10:28:34;;;;;;;0.50;0.50;;;19.70;60.70;;;19.60;44.02;94121.63;5036742;28;20237;-30
2023/03/24 10:31:12;;;;;;;0.40;0.40;;;19.70;60.70;;;19.59;44.31;94123.50;5036921;28;20197;-28
2023/03/24 10:33:43;;;;;;;0.40;0.40;;;19.70;60.70;;;19.58;44.51;94118.41;5015138;28;20624;-27
2023/03/24 10:36:17;;;;;;;0.40;0.40;;;19.60;60.60;;;19.59;44.47;94118.19;5000172;28;20191;-28
2023/03/24 10:38:45;;;;;;;0.40;0.40;;;19.70;60.70;;;19.60;43.97;94114.44;5015840;28;20226;-28
2023/03/24 10:41:22;;;;;;;0.45;0.45;;;19.70;60.70;;;19.61;44.56;94121.34;4999279;28;20280;-27
2023/03/24 10:43:52;;;;;;;0.40;0.40;;;19.70;60.70;;;19.62;44.45;94125.59;4980242;28;20189;-27
2023/03/24 10:46:34;;;;;;;0.50;0.50;;;19.70;60.70;;;19.63;44.48;94127.22;5000550;28;20200;-26
2023/03/24 10:49:19;;;;;;;0.40;0.40;;;19.70;60.70;;;19.63;44.60;94137.06;4994996;28;20236;-26
2023/03/24 10:51:55;;;;;;;0.40;0.40;;;19.70;60.60;;;19.63;44.19;94129.09;4995940;28;20202;-26
2023/03/24 10:54:25;;;;;;;0.47;0.47;;;19.70;60.70;;;19.65;43.95;94138.38;4979711;28;20293;-26
2023/03/24 10:56:59;;;;;;;0.40;0.40;;;19.70;60.70;;;19.70;44.13;94144.75;4963801;28;20203;-26
2023/03/24 10:59:31;;;;;;;0.40;0.40;;;19.70;60.60;;;19.66;43.96;94134.66;4963617;28;20228;-26
2023/03/24 11:02:16;;;;;;;0.47;0.47;;;19.70;60.70;;;19.67;44.05;94128.25;4963727;28;20204;-26
2023/03/24 11:05:01;;;;;;;0.50;0.50;;;19.70;60.60;;;19.69;44.60;94136.00;4979320;28;20207;-26
2023/03/24 11:07:35;;;;;;;0.40;0.40;;;19.70;60.60;;;19.70;44.40;94136.78;4980196;28;20242;-26
2023/03/24 11:10:09;;;;;;;0.40;0.40;;;19.70;60.60;;;19.71;44.07;94141.81;4964340;28;20232;-26
2023/03/24 11:12:41;;;;;;;0.40;0.40;;;19.70;60.60;;;19.72;43.90;94135.44;4979884;28;20206;-26
2023/03/24 11:15:36;;;;;;;0.40;0.40;;;19.80;60.70;;;19.72;44.08;94143.41;4980236;28;20597;-26
2023/03/24 11:18:14;;;;;;;0.40;0.40;;;19.80;60.70;;;19.73;44.26;94146.91;4996535;28;20196;-26
2023/03/24 11:21:05;;;;;;;0.40;0.40;;;19.80;60.60;;;19.72;44.54;94143.41;4979164;28;20267;-26
2023/03/24 11:23:44;;;;;;;0.40;0.40;;;19.80;60.70;;;19.72;44.03;94138.09;4963861;28;20285;-26
2023/03/24 11:26:22;;;;;;;0.40;0.40;;;19.80;60.60;;;19.73;44.37;94142.34;4979235;28;20192;-26
2023/03/24 11:29:00;;;;;;;0.43;0.43;;;19.80;60.60;;;19.74;44.36;94141.28;4978879;28;20227;-26
2023/03/24 11:31:31;;;;;;;0.40;0.40;;;19.80;60.60;;;19.76;44.34;94141.03;4979073;28;20206;-26
2023/03/24 11:34:12;;;;;;;0.35;0.35;;;19.80;60.60;;;19.77;44.43;94143.41;4963146;28;20203;-26
2023/03/24 11:36:57;;;;;;;0.40;0.40;;;19.80;60.60;;;19.78;44.32;94134.34;4996632;28;20175;-26
2023/03/24 11:39:27;;;;;;;0.30;0.30;;;19.80;60.60;;;19.78;44.14;94141.56;4962947;28;20692;-26
2023/03/24 11:42:17;;;;;;;0.30;0.30;;;19.80;60.60;;;19.80;44.44;94139.44;4995137;28;20191;-26
2023/03/24 11:44:54;;;;;;;0.40;0.40;;;19.80;60.70;;;19.80;44.23;94142.09;4964438;28;20640;-26
2023/03/24 11:47:32;;;;;;;0.40;0.40;;;19.80;60.50;;;19.82;44.30;94150.59;4962555;28;20233;-26
2023/03/24 11:50:09;;;;;;;0.40;0.40;;;19.90;60.60;;;19.81;44.32;94144.47;4978878;28;20693;-26
2023/03/24 11:53:11;;;;;;;0.40;0.40;;;19.80;60.50;;;19.81;44.35;94159.63;4996149;28;20198;-26
2023/03/24 11:55:57;;;;;;;0.40;0.40;;;19.90;60.60;;;19.79;44.07;94156.47;4989141;28;20513;-27
2023/03/24 11:58:40;;;;;;;0.40;0.40;;;19.90;60.60;;;19.77;43.68;94151.38;5008331;23;20294;-22
2023/03/24 12:01:19;;;;;;;0.50;0.50;;;19.90;60.30;;;19.74;43.35;94153.78;5015440;28;20520;-23
2023/03/24 12:04:20;;;;;;;0.40;0.40;;;19.80;60.20;;;19.71;43.75;94151.69;5015317;28;20188;-23
2023/03/24 12:07:13;;;;;;;0.40;0.40;;;19.80;60.30;;;19.66;43.40;94158.59;5015531;28;20179;-23
2023/03/24 12:09:54;;;;;;;0.50;0.50;;;19.70;60.20;;;19.64;43.88;94157.25;5013882;28;20239;-23
2023/03/24 12:13:00;;;;;;;0.40;0.40;;;19.70;60.30;;;19.61;43.78;94155.94;5007081;28;20231;-23
2023/03/24 12:15:47;;;;;;;0.50;0.50;;;19.60;60.20;;;19.59;43.90;94160.75;4992296;28;20205;-23
2023/03/24 12:18:33;;;;;;;0.40;0.40;;;19.60;60.30;;;19.58;44.04;94168.97;5015190;28;20185;-23
2023/03/24 12:25:50;;;;;;;0.45;0.45;;;19.60;60.50;;;19.44;44.22;94174.81;5005245;23;20251;-22
2023/03/24 12:28:43;;;;;;;0.40;0.40;;;19.50;60.30;;;19.42;43.49;94176.97;4994270;28;20281;-22
2023/03/24 12:31:33;;;;;;;0.40;0.40;;;19.50;60.20;;;19.40;43.52;94184.41;4978877;28;20532;-22
2023/03/24 12:34:58;;;;;;;0.40;0.40;;;19.40;60.20;;;19.38;43.76;94183.06;4995663;28;20272;-22
2023/03/24 12:37:28;;;;;;;0.30;0.30;;;19.40;60.20;;;19.36;43.59;94178.03;4982792;28;20266;-22
2023/03/24 12:40:26;;;;;;;0.40;0.40;;;19.40;60.20;;;19.35;43.77;94177.22;4995339;28;20240;-23
2023/03/24 12:43:11;;;;;;;0.55;0.55;;;19.40;60.30;;;19.35;44.16;94174.56;4946823;28;20267;-23
2023/03/24 12:45:51;;;;;;;0.50;0.50;;;19.40;60.30;;;19.35;44.11;94171.88;5062788;22;20320;31
2023/03/24 12:48:44;;;;;;;0.40;0.40;;;19.40;60.30;;;19.32;43.58;94174.28;5046670;22;20217;31
2023/03/24 12:51:38;;;;;;;0.40;0.40;;;19.40;60.10;;;19.32;43.77;94169.78;4994275;28;20214;-22
2023/03/24 12:54:24;;;;;;;0.50;0.50;;;19.40;60.10;;;19.31;43.33;94173.50;4995423;23;20251;-22
2023/03/24 12:57:02;;;;;;;0.52;0.52;;;19.40;60.00;;;19.28;43.72;94176.66;4997915;28;20184;-22
2023/03/24 12:59:46;;;;;;;0.40;0.40;;;19.40;60.10;;;19.30;43.75;94181.75;5018028;28;20694;-22
2023/03/24 13:11:02;;;;;;;0.50;0.50;;;19.40;60.20;;;19.22;43.90;94176.94;5026028;23;20337;-23
2023/03/24 13:19:28;;;;;;;0.50;0.50;;;19.40;60.50;;;19.22;44.37;94184.91;5035605;23;20274;-23
2023/03/24 13:39:27;;;;;;;0.50;0.50;;;19.50;60.70;;;19.22;44.43;94172.41;5006455;23;20310;-23
2023/03/24 13:46:32;;;;;;;0.50;0.50;;;19.40;60.60;;;19.23;44.79;94160.72;4977611;28;20230;-23
2023/03/24 14:02:31;;;;;;;0.50;0.50;;;19.50;60.70;;;19.27;44.96;94150.34;4926110;29;20206;-23
2023/03/24 14:05:59;;;;;;;0.50;0.50;;;19.50;60.70;;;19.26;44.80;94159.38;4939411;29;20203;-23
2023/03/24 14:17:22;;;;;;;0.40;0.40;;;19.40;60.50;;;19.33;47.36;94154.59;5425774;23;20242;-29
2023/03/24 14:20:04;;;;;;;0.50;0.50;;;19.50;63.10;;;19.37;46.17;94153.00;4923293;29;20230;-29
2023/03/24 14:27:41;;;;;;;0.40;0.40;;;19.50;61.80;;;19.30;45.58;94141.88;4965507;23;20245;-30
2023/03/24 14:31:02;;;;;;;0.40;0.40;;;19.50;61.50;;;19.29;45.27;94130.41;4962394;28;20197;-31
2023/03/24 14:33:37;;;;;;;0.40;0.40;;;19.50;61.50;;;19.28;45.59;94118.19;4918547;29;20205;-29
2023/03/24 14:36:31;;;;;;;0.50;0.50;;;19.50;61.50;;;19.29;45.29;94103.81;4919589;29;20627;-29
2023/03/24 14:39:49;;;;;;;0.40;0.40;;;19.50;61.50;;;19.29;45.44;94108.34;4920108;29;20243;-29